Almont, Michigan
Current Conditions -  °F | °C
As of 1:33 PM on Sunday 23 Nov 2014 (Local Time) from KD95 Reporting Station
Overcast Overcast  
Wind Chill: 45°   Ceiling: 12000
Heat Index: 48°   Visibility: 10mi
Dew Point: 44°   Wind: 7mph
Humidity: 83%   Direction: 160°SSE
Pressure: 29.78"   Gusts: NA
Location:  42.92°N, 83.04°W
Report Text: KD95 231833Z AUTO 16006KT 10SM SCT070 SCT090 OVC120 09/06 A2978 RMK AO2 T00910064
Loading
Personal Weather Stations






























Interactive Weather Map New forecast layout! Learn more

10-Day Weather Forecast

Advertisements
Track Severe Weather on mobile